createdAt,value
2017-03-25T00:00:34.514Z,1.9
2017-03-25T00:01:36.359Z,1.9
2017-03-25T00:02:38.166Z,1.8
2017-03-25T00:03:39.965Z,1.8
2017-03-25T00:04:42.032Z,1.8
2017-03-25T00:05:43.831Z,1.9
2017-03-25T00:06:45.628Z,1.9
2017-03-25T00:07:47.433Z,1.9
2017-03-25T00:08:49.235Z,1.9
2017-03-25T00:09:51.033Z,1.9
2017-03-25T00:10:52.840Z,1.9
2017-03-25T00:11:54.648Z,1.9
2017-03-25T00:12:56.454Z,1.9
2017-03-25T00:13:58.552Z,1.9
2017-03-25T00:15:00.541Z,2
2017-03-25T00:16:02.931Z,2
2017-03-25T00:17:04.923Z,2
2017-03-25T00:18:06.721Z,2
2017-03-25T00:19:08.858Z,2
2017-03-25T00:20:10.666Z,2
2017-03-25T00:21:12.802Z,2.1
2017-03-25T00:22:14.602Z,2
2017-03-25T00:23:16.407Z,2
2017-03-25T00:24:18.552Z,2.1
2017-03-25T00:25:20.361Z,2.1
2017-03-25T00:26:22.408Z,2.1
2017-03-25T00:27:24.209Z,2.1
2017-03-25T00:28:26.007Z,2.1
2017-03-25T00:29:27.812Z,2.1
2017-03-25T00:30:29.610Z,2
2017-03-25T00:31:31.818Z,2
2017-03-25T00:32:33.999Z,2
2017-03-25T00:33:35.801Z,2
2017-03-25T00:34:37.601Z,2
2017-03-25T00:35:39.410Z,2
2017-03-25T00:36:41.215Z,2
2017-03-25T00:37:43.013Z,2
2017-03-25T00:38:44.815Z,2
2017-03-25T00:39:46.616Z,2
2017-03-25T00:40:48.419Z,2
2017-03-25T00:41:50.217Z,2
2017-03-25T00:42:52.412Z,2.1
2017-03-25T00:43:54.205Z,2
2017-03-25T00:44:56.004Z,2.1
2017-03-25T00:45:57.796Z,2.1
2017-03-25T00:46:59.630Z,2.1
2017-03-25T00:48:01.430Z,2.2
2017-03-25T00:49:03.469Z,2.2
2017-03-25T00:50:05.280Z,2.3
2017-03-25T00:51:07.328Z,2.3
2017-03-25T00:52:09.298Z,2.2
2017-03-25T00:53:11.241Z,2.2
2017-03-25T00:54:13.047Z,2.2
2017-03-25T00:55:14.840Z,2.2
2017-03-25T00:56:16.642Z,2.3
2017-03-25T00:57:18.457Z,2.3
2017-03-25T00:58:20.255Z,2.5
2017-03-25T00:59:22.370Z,2.4
2017-03-25T01:00:24.170Z,2.4
2017-03-25T01:01:25.966Z,2.5
2017-03-25T01:02:27.779Z,2.5
2017-03-25T01:03:29.576Z,2.6
2017-03-25T01:04:31.381Z,2.6
2017-03-25T01:05:33.741Z,2.6
2017-03-25T01:06:35.733Z,2.6
2017-03-25T01:07:37.684Z,2.5
2017-03-25T01:08:39.723Z,2.6
2017-03-25T01:09:41.967Z,2.5
2017-03-25T01:10:43.765Z,2.6
2017-03-25T01:11:45.566Z,2.6
2017-03-25T01:12:47.358Z,2.5
2017-03-25T01:13:49.157Z,2.5
2017-03-25T01:14:50.955Z,2.4
2017-03-25T01:15:52.909Z,2.5
2017-03-25T01:16:54.704Z,2.5
2017-03-25T01:17:56.505Z,2.6
2017-03-25T01:18:58.311Z,2.5
2017-03-25T01:20:00.576Z,2.6
2017-03-25T01:21:02.975Z,2.6
2017-03-25T01:22:05.052Z,2.5
2017-03-25T01:23:06.850Z,2.5
2017-03-25T01:24:08.658Z,2.6
2017-03-25T01:25:10.458Z,2.6
2017-03-25T01:26:12.537Z,2.6
2017-03-25T01:27:14.681Z,2.5
2017-03-25T01:28:16.483Z,2.5
2017-03-25T01:29:18.285Z,2.5
2017-03-25T01:30:20.086Z,2.6
2017-03-25T01:31:22.308Z,2.5
2017-03-25T01:32:24.104Z,2.6
2017-03-25T01:33:25.904Z,2.6
2017-03-25T01:34:27.707Z,2.6
2017-03-25T01:35:29.510Z,2.6
2017-03-25T01:36:31.316Z,2.8
2017-03-25T01:37:33.417Z,2.8
2017-03-25T01:38:35.377Z,2.9
2017-03-25T01:39:37.187Z,2.9
2017-03-25T01:40:38.991Z,3
2017-03-25T01:41:40.792Z,2.9
2017-03-25T01:42:42.929Z,2.9
2017-03-25T01:43:44.738Z,2.9
2017-03-25T01:44:46.539Z,2.8
2017-03-25T01:45:48.340Z,2.8
2017-03-25T01:46:50.141Z,2.8
2017-03-25T01:47:52.346Z,2.7
2017-03-25T01:48:54.155Z,2.6
2017-03-25T01:49:55.951Z,2.5
2017-03-25T01:50:57.749Z,2.5
2017-03-25T01:51:59.561Z,2.6
2017-03-25T01:53:01.361Z,2.5
2017-03-25T01:54:03.370Z,2.5
2017-03-25T01:55:05.430Z,2.5
2017-03-25T01:56:07.230Z,2.5
2017-03-25T01:57:09.369Z,2.6
2017-03-25T01:58:11.172Z,2.6
2017-03-25T01:59:13.228Z,2.6
2017-03-25T02:00:15.025Z,2.5
2017-03-25T02:01:17.168Z,2.5
2017-03-25T02:02:18.998Z,2.5
2017-03-25T02:03:20.806Z,2.4
2017-03-25T02:04:23.247Z,2.5
2017-03-25T02:05:25.052Z,2.4
2017-03-25T02:06:27.183Z,2.4
2017-03-25T02:07:28.980Z,2.3
2017-03-25T02:08:30.777Z,2.3
2017-03-25T02:09:33.022Z,2.3
2017-03-25T02:10:35.169Z,2.3
2017-03-25T02:11:36.968Z,2.3
2017-03-25T02:12:38.771Z,2.4
2017-03-25T02:13:40.562Z,2.4
2017-03-25T02:14:42.597Z,2.4
2017-03-25T02:15:44.396Z,2.5
2017-03-25T02:16:46.544Z,2.4
2017-03-25T02:17:48.342Z,2.4
2017-03-25T02:18:50.143Z,2.4
2017-03-25T02:19:52.483Z,2.4
2017-03-25T02:20:54.622Z,2.4
2017-03-25T02:21:56.667Z,2.3
2017-03-25T02:22:58.625Z,2.3
2017-03-25T02:24:00.578Z,2.3
2017-03-25T02:25:02.386Z,2.2
2017-03-25T02:26:04.186Z,2.2
2017-03-25T02:27:05.985Z,2.2
2017-03-25T02:28:07.783Z,2.2
2017-03-25T02:29:09.586Z,2.3
2017-03-25T02:30:11.391Z,2.1
2017-03-25T02:31:13.537Z,2.1
2017-03-25T02:32:15.676Z,2.1
2017-03-25T02:33:17.476Z,2
2017-03-25T02:34:19.276Z,2.1
2017-03-25T02:35:21.069Z,2
2017-03-25T02:36:22.868Z,2
2017-03-25T02:37:24.672Z,2
2017-03-25T02:38:26.475Z,2
2017-03-25T02:39:28.445Z,1.9
2017-03-25T02:40:30.469Z,1.9
2017-03-25T02:41:32.269Z,1.9
2017-03-25T02:42:34.073Z,2
2017-03-25T02:43:35.875Z,2
2017-03-25T02:44:37.675Z,1.9
2017-03-25T02:45:39.471Z,2
2017-03-25T02:46:41.277Z,2.1
2017-03-25T02:47:43.417Z,2
2017-03-25T02:48:45.215Z,2
2017-03-25T02:49:47.350Z,1.9
2017-03-25T02:50:49.156Z,1.9
2017-03-25T02:51:51.298Z,1.9
2017-03-25T02:52:53.096Z,1.9
2017-03-25T02:53:54.898Z,1.8
2017-03-25T02:54:57.194Z,1.8
2017-03-25T02:55:59.168Z,1.8
2017-03-25T02:57:01.100Z,1.7
2017-03-25T02:58:03.330Z,1.8
2017-03-25T02:59:05.752Z,1.8
2017-03-25T03:00:07.552Z,1.8
2017-03-25T03:01:09.721Z,1.9
2017-03-25T03:02:11.862Z,2.1
2017-03-25T03:03:14.336Z,2
2017-03-25T03:04:16.137Z,2.1
2017-03-25T03:05:17.937Z,2
2017-03-25T03:06:19.741Z,1.9
2017-03-25T03:07:21.537Z,1.9
2017-03-25T03:08:23.347Z,1.9
2017-03-25T03:09:25.493Z,1.7
2017-03-25T03:10:27.292Z,1.7
2017-03-25T03:11:29.145Z,1.7
2017-03-25T03:12:31.305Z,1.7
2017-03-25T03:13:34.142Z,1.7
2017-03-25T03:14:35.958Z,1.8
2017-03-25T03:15:37.765Z,1.7
2017-03-25T03:16:39.563Z,1.7
2017-03-25T03:17:41.365Z,1.7
2017-03-25T03:18:43.518Z,1.8
2017-03-25T03:19:45.314Z,1.8
2017-03-25T03:20:47.121Z,1.8
2017-03-25T03:21:48.918Z,1.8
2017-03-25T03:22:50.722Z,1.7
2017-03-25T03:23:52.860Z,1.8
2017-03-25T03:24:54.659Z,1.7
2017-03-25T03:25:56.466Z,1.7
2017-03-25T03:26:58.268Z,1.7
2017-03-25T03:28:00.082Z,1.7
2017-03-25T03:29:01.883Z,1.7
2017-03-25T03:30:03.691Z,1.6
2017-03-25T03:31:05.838Z,1.6
2017-03-25T03:32:07.642Z,1.6
2017-03-25T03:33:09.444Z,1.6
2017-03-25T03:34:11.244Z,1.5
2017-03-25T03:35:13.038Z,1.5
2017-03-25T03:36:14.842Z,1.5
2017-03-25T03:37:16.646Z,1.5
2017-03-25T03:38:18.786Z,1.4
2017-03-25T03:39:20.967Z,1.4
2017-03-25T03:40:23.155Z,1.4
2017-03-25T03:41:24.957Z,1.4
2017-03-25T03:42:26.916Z,1.4
2017-03-25T03:43:28.984Z,1.3
2017-03-25T03:44:30.780Z,1.3
2017-03-25T03:45:32.591Z,1.3
2017-03-25T03:46:34.391Z,1.2
2017-03-25T03:47:36.243Z,1.2
2017-03-25T03:48:38.723Z,1.2
2017-03-25T03:49:40.534Z,1.1
2017-03-25T03:50:42.681Z,1.1
2017-03-25T03:51:44.815Z,1.1
2017-03-25T03:52:47.016Z,1.1
2017-03-25T03:53:49.151Z,1.1
2017-03-25T03:54:50.949Z,1.1
2017-03-25T03:55:52.754Z,1.2
2017-03-25T03:56:54.552Z,1.3
2017-03-25T03:57:56.356Z,1.3
2017-03-25T03:58:58.161Z,1.2
2017-03-25T03:59:59.964Z,1.3
2017-03-25T04:01:01.771Z,1.3
2017-03-25T04:02:03.576Z,1.2
2017-03-25T04:03:05.375Z,1.2
2017-03-25T04:04:07.172Z,1.4
2017-03-25T04:05:08.973Z,1.3
2017-03-25T04:06:10.770Z,1.3
2017-03-25T04:07:12.571Z,1.4
2017-03-25T04:08:14.378Z,1.4
2017-03-25T04:09:16.529Z,1.3
2017-03-25T04:10:18.329Z,1.3
2017-03-25T04:11:20.137Z,1.2
2017-03-25T04:12:21.930Z,1.2
2017-03-25T04:13:24.076Z,1.1
2017-03-25T04:14:25.879Z,1.1
2017-03-25T04:15:27.678Z,1.1
2017-03-25T04:16:29.809Z,1.2
2017-03-25T04:17:31.653Z,1.2
2017-03-25T04:18:33.795Z,1.1
2017-03-25T04:19:35.946Z,1.1
2017-03-25T04:20:37.739Z,1.1
2017-03-25T04:21:39.882Z,1.1
2017-03-25T04:22:41.680Z,1.1
2017-03-25T04:23:43.830Z,1.1
2017-03-25T04:24:45.631Z,1
2017-03-25T04:25:47.422Z,0.9
2017-03-25T04:26:49.218Z,0.9
2017-03-25T04:27:51.356Z,0.8
2017-03-25T04:28:53.158Z,0.9
2017-03-25T04:29:55.298Z,0.8
2017-03-25T04:30:57.432Z,0.8
2017-03-25T04:31:59.234Z,0.7
2017-03-25T04:33:01.028Z,0.7
2017-03-25T04:34:02.833Z,0.7
2017-03-25T04:35:04.981Z,0.8
2017-03-25T04:36:06.783Z,0.8
2017-03-25T04:37:08.584Z,0.7
2017-03-25T04:38:10.388Z,0.7
2017-03-25T04:39:12.182Z,0.8
2017-03-25T04:40:13.983Z,0.8
2017-03-25T04:41:15.783Z,0.8
2017-03-25T04:42:17.585Z,0.8
2017-03-25T04:43:19.723Z,0.8
2017-03-25T04:44:21.521Z,0.8
2017-03-25T04:45:23.328Z,0.8
2017-03-25T04:46:25.130Z,0.8
2017-03-25T04:47:26.928Z,0.8
2017-03-25T04:48:28.735Z,0.8
2017-03-25T04:49:30.536Z,0.7
2017-03-25T04:50:32.367Z,0.7
2017-03-25T04:51:34.168Z,0.7
2017-03-25T04:52:35.968Z,0.6
2017-03-25T04:53:37.771Z,0.6
2017-03-25T04:54:39.583Z,0.6
2017-03-25T04:55:41.720Z,0.6
2017-03-25T04:56:43.857Z,0.6
2017-03-25T04:57:45.989Z,0.6
2017-03-25T04:58:48.135Z,0.6
2017-03-25T04:59:49.938Z,0.6
2017-03-25T05:00:52.087Z,0.6
2017-03-25T05:01:53.878Z,0.6
2017-03-25T05:02:55.690Z,0.5
2017-03-25T05:03:58.235Z,0.6
2017-03-25T05:05:00.382Z,0.6
2017-03-25T05:06:02.536Z,0.5
2017-03-25T05:07:04.334Z,0.5
2017-03-25T05:08:06.132Z,0.5
2017-03-25T05:09:07.934Z,0.6
2017-03-25T05:10:09.734Z,0.6
2017-03-25T05:11:11.532Z,0.7
2017-03-25T05:12:13.660Z,0.7
2017-03-25T05:13:15.458Z,0.7
2017-03-25T05:14:17.592Z,0.8
2017-03-25T05:15:19.397Z,0.7
2017-03-25T05:16:21.535Z,0.7
2017-03-25T05:17:23.332Z,0.7
2017-03-25T05:18:25.129Z,0.7
2017-03-25T05:19:27.669Z,0.6
2017-03-25T05:20:29.463Z,0.6
2017-03-25T05:21:31.258Z,0.6
2017-03-25T05:22:33.059Z,0.6
2017-03-25T05:23:35.208Z,0.7
2017-03-25T05:24:37.342Z,0.7
2017-03-25T05:25:39.146Z,0.7
2017-03-25T05:26:40.945Z,0.7
2017-03-25T05:27:42.742Z,0.7
2017-03-25T05:28:45.219Z,0.7
2017-03-25T05:29:47.394Z,0.7
2017-03-25T05:30:49.227Z,0.7
2017-03-25T05:31:51.068Z,0.7
2017-03-25T05:32:53.218Z,0.6
2017-03-25T05:33:55.040Z,0.7
2017-03-25T05:34:57.192Z,0.7
2017-03-25T05:35:59.405Z,0.7
2017-03-25T05:37:01.226Z,0.7
2017-03-25T05:38:03.024Z,0.6
2017-03-25T05:39:05.267Z,0.6
2017-03-25T05:40:07.070Z,0.6
2017-03-25T05:41:08.877Z,0.7
2017-03-25T05:42:10.688Z,0.7
2017-03-25T05:43:12.478Z,0.8
2017-03-25T05:44:14.278Z,1
2017-03-25T05:45:16.123Z,1
2017-03-25T05:46:17.943Z,1.1
2017-03-25T05:47:19.781Z,1.1
2017-03-25T05:48:21.602Z,1.2
2017-03-25T05:49:23.519Z,1.2
2017-03-25T05:50:25.316Z,1.3
2017-03-25T05:51:27.118Z,1.3
2017-03-25T05:52:29.255Z,1.3
2017-03-25T05:53:31.062Z,1.3
2017-03-25T05:54:32.968Z,1.2
2017-03-25T05:55:34.769Z,1.2
2017-03-25T05:56:36.636Z,1.2
2017-03-25T05:57:38.889Z,1.2
2017-03-25T05:58:41.032Z,1.3
2017-03-25T05:59:42.870Z,1.2
2017-03-25T06:00:45.015Z,1.3
2017-03-25T06:01:46.808Z,1.2
2017-03-25T06:02:48.705Z,1.3
2017-03-25T06:03:51.190Z,1.3
2017-03-25T06:04:53.019Z,1.3
2017-03-25T06:05:54.831Z,1.4
2017-03-25T06:06:56.647Z,1.3
2017-03-25T06:07:58.564Z,1.3
2017-03-25T06:09:00.372Z,1.3
2017-03-25T06:10:02.922Z,1.3
2017-03-25T06:11:05.076Z,1.3
2017-03-25T06:12:06.883Z,1.2
2017-03-25T06:13:08.881Z,1.2
2017-03-25T06:14:11.377Z,1.2
2017-03-25T06:15:13.614Z,1.2
2017-03-25T06:16:15.764Z,1.2
2017-03-25T06:17:17.574Z,1.2
2017-03-25T06:18:19.380Z,1.1
2017-03-25T06:19:21.522Z,1.2
2017-03-25T06:20:23.320Z,1.2
2017-03-25T06:21:25.173Z,1.3
2017-03-25T06:22:26.972Z,1.2
2017-03-25T06:23:28.772Z,1.2
2017-03-25T06:24:30.910Z,1.2
2017-03-25T06:25:32.711Z,1.2
2017-03-25T06:26:34.861Z,1.2
2017-03-25T06:27:36.668Z,1.3
2017-03-25T06:28:38.465Z,1.3
2017-03-25T06:29:40.266Z,1.5
2017-03-25T06:30:42.097Z,1.6
2017-03-25T06:31:43.957Z,1.6
2017-03-25T06:32:45.752Z,1.6
2017-03-25T06:33:48.230Z,1.6
2017-03-25T06:34:51.057Z,1.6
2017-03-25T06:35:52.862Z,1.8
2017-03-25T06:36:54.662Z,1.8
2017-03-25T06:37:56.459Z,1.8
2017-03-25T06:38:58.261Z,1.8
2017-03-25T06:40:00.407Z,1.8
2017-03-25T06:41:02.550Z,1.9
2017-03-25T06:42:04.351Z,1.9
2017-03-25T06:43:06.503Z,1.9
2017-03-25T06:44:08.312Z,1.9
2017-03-25T06:45:10.120Z,1.9
2017-03-25T06:46:12.612Z,1.9
2017-03-25T06:47:14.408Z,2
2017-03-25T06:48:16.224Z,2
2017-03-25T06:49:18.031Z,2.1
2017-03-25T06:50:20.168Z,2.1
2017-03-25T06:51:21.970Z,2.2
2017-03-25T06:52:23.775Z,2.3
2017-03-25T06:53:25.593Z,2.3
2017-03-25T06:54:27.757Z,2.4
2017-03-25T06:55:29.640Z,2.4
2017-03-25T06:56:31.435Z,2.5
2017-03-25T06:57:33.586Z,2.5
2017-03-25T06:58:36.077Z,2.6
2017-03-25T06:59:37.874Z,2.6
2017-03-25T07:00:39.672Z,2.7
2017-03-25T07:01:41.475Z,2.7
2017-03-25T07:02:43.971Z,2.8
2017-03-25T07:03:46.112Z,2.8
2017-03-25T07:04:47.920Z,2.9
2017-03-25T07:05:49.713Z,2.9
2017-03-25T07:06:51.856Z,3
2017-03-25T07:07:53.996Z,3.1
2017-03-25T07:08:56.136Z,3.1
2017-03-25T07:09:57.941Z,3.2
2017-03-25T07:10:59.758Z,3.2
2017-03-25T07:12:01.560Z,3.3
2017-03-25T07:13:03.697Z,3.4
2017-03-25T07:14:05.507Z,3.5
2017-03-25T07:15:07.642Z,3.5
2017-03-25T07:16:09.448Z,3.6
2017-03-25T07:17:11.259Z,3.7
2017-03-25T07:18:13.061Z,3.7
2017-03-25T07:19:14.862Z,3.8
2017-03-25T07:20:16.667Z,3.8
2017-03-25T07:21:18.801Z,3.8
2017-03-25T07:22:20.604Z,3.9
2017-03-25T07:23:22.749Z,3.8
2017-03-25T07:24:24.545Z,4
2017-03-25T07:25:26.358Z,4
2017-03-25T07:26:28.499Z,4
2017-03-25T07:27:30.636Z,4.1
2017-03-25T07:28:32.780Z,4.2
2017-03-25T07:29:34.592Z,4.1
2017-03-25T07:30:36.397Z,4.2
2017-03-25T07:31:38.211Z,4.3
2017-03-25T07:32:40.007Z,4.3
2017-03-25T07:33:41.814Z,4.4
2017-03-25T07:34:43.615Z,4.3
2017-03-25T07:35:45.425Z,4.3
2017-03-25T07:36:47.561Z,4.4
2017-03-25T07:37:49.698Z,4.5
2017-03-25T07:38:51.496Z,4.5
2017-03-25T07:39:53.296Z,4.5
2017-03-25T07:40:55.446Z,4.5
2017-03-25T07:41:57.588Z,4.6
2017-03-25T07:42:59.722Z,4.8
2017-03-25T07:44:01.535Z,4.9
2017-03-25T07:45:03.338Z,4.9
2017-03-25T07:46:05.140Z,4.9
2017-03-25T07:47:07.616Z,4.8
2017-03-25T07:48:09.419Z,4.9
2017-03-25T07:49:11.559Z,4.8
2017-03-25T07:50:13.369Z,4.8
2017-03-25T07:51:15.851Z,4.9
2017-03-25T07:52:17.647Z,5
2017-03-25T07:57:17.910Z,5.1
2017-03-25T07:58:19.762Z,5.2
2017-03-25T07:59:21.987Z,5.3
2017-03-25T08:00:23.832Z,5.5
2017-03-25T08:01:25.688Z,5.4
2017-03-25T08:02:27.543Z,5.6
2017-03-25T08:03:29.412Z,5.6
2017-03-25T08:04:31.272Z,5.5
2017-03-25T08:05:33.118Z,5.6
2017-03-25T08:06:34.974Z,5.7
2017-03-25T08:07:36.835Z,5.7
2017-03-25T08:08:39.028Z,5.8
2017-03-25T08:09:40.892Z,5.9
2017-03-25T08:10:42.788Z,6
2017-03-25T08:11:45.042Z,6.1
2017-03-25T08:12:47.375Z,6.2
2017-03-25T08:13:49.255Z,6.2
2017-03-25T08:14:51.519Z,6.3
2017-03-25T08:15:53.410Z,6.5
2017-03-25T08:16:55.449Z,6.6
2017-03-25T08:17:57.312Z,6.6
2017-03-25T08:18:59.334Z,6.6
2017-03-25T08:20:01.190Z,6.8
2017-03-25T08:21:03.460Z,6.7
2017-03-25T08:22:05.523Z,7
2017-03-25T08:23:07.518Z,7
2017-03-25T08:24:09.497Z,7.1
2017-03-25T08:25:11.506Z,7.1
2017-03-25T08:26:14.196Z,7.2
2017-03-25T08:27:16.077Z,7.2
2017-03-25T08:28:18.146Z,7.2
2017-03-25T08:29:20.159Z,7.3
2017-03-25T08:30:22.384Z,7.3
2017-03-25T08:31:24.634Z,7.5
2017-03-25T08:32:26.570Z,7.5
2017-03-25T08:33:28.608Z,7.5
2017-03-25T08:34:30.826Z,7.7
2017-03-25T08:35:32.764Z,7.7
2017-03-25T08:36:34.700Z,7.6
2017-03-25T08:37:36.646Z,7.7
2017-03-25T08:38:38.670Z,8
2017-03-25T08:39:40.616Z,8.1
2017-03-25T08:40:42.936Z,8.3
2017-03-25T08:41:44.884Z,8.1
2017-03-25T08:42:46.843Z,8.2
2017-03-25T08:43:49.146Z,8.3
2017-03-25T08:44:51.044Z,8.3
2017-03-25T08:45:52.981Z,8.5
2017-03-25T08:46:55.273Z,8.5
2017-03-25T08:47:57.257Z,8.5
2017-03-25T08:48:59.320Z,8.8
2017-03-25T08:50:01.334Z,8.6
2017-03-25T08:51:03.753Z,8.6
2017-03-25T08:52:05.749Z,8.9
2017-03-25T08:53:07.685Z,9.1
2017-03-25T08:54:10.048Z,9.1
2017-03-25T08:55:12.084Z,8.8
2017-03-25T08:56:14.102Z,8.9
2017-03-25T08:57:16.077Z,9.1
2017-03-25T08:58:18.622Z,9.1
2017-03-25T08:59:20.640Z,8.9
2017-03-25T09:00:22.683Z,8.9
2017-03-25T09:01:24.568Z,8.8
2017-03-25T09:02:26.643Z,8.5
2017-03-25T09:03:28.897Z,8.7
2017-03-25T09:04:31.018Z,8.6
2017-03-25T09:05:33.663Z,8.7
2017-03-25T09:06:35.844Z,8.9
2017-03-25T09:07:38.044Z,8.8
2017-03-25T09:08:40.327Z,8.8
2017-03-25T09:09:42.652Z,8.6
2017-03-25T09:10:44.793Z,8.7
2017-03-25T09:11:46.914Z,8.8
2017-03-25T09:12:48.881Z,8.7
2017-03-25T09:13:50.825Z,8.8
2017-03-25T09:14:52.828Z,8.5
2017-03-25T09:15:55.181Z,8.8
2017-03-25T09:16:57.224Z,9
2017-03-25T09:17:59.592Z,8.7
2017-03-25T09:19:01.562Z,8.8
2017-03-25T09:20:03.592Z,8.9
2017-03-25T09:21:05.522Z,8.9
2017-03-25T09:22:07.931Z,9
2017-03-25T09:23:09.925Z,9.1
2017-03-25T09:24:12.232Z,9
2017-03-25T09:25:14.241Z,9.4
2017-03-25T09:26:16.202Z,9.6
2017-03-25T09:27:18.263Z,9.7
2017-03-25T09:28:20.533Z,9.6
2017-03-25T09:29:22.673Z,9.6
2017-03-25T09:30:24.999Z,9.7
2017-03-25T09:31:27.042Z,9.5
2017-03-25T09:32:28.982Z,9.5
2017-03-25T09:33:31.022Z,9.8
2017-03-25T09:34:33.564Z,9.5
2017-03-25T09:35:35.709Z,9.6
2017-03-25T09:36:37.949Z,9.4
2017-03-25T09:37:40.199Z,9.5
2017-03-25T09:38:42.472Z,9.3
2017-03-25T09:39:44.598Z,9.3
2017-03-25T09:40:46.924Z,9.4
2017-03-25T09:41:49.554Z,9
2017-03-25T09:42:52.046Z,9.4
2017-03-25T09:43:54.556Z,9.4
2017-03-25T09:44:56.893Z,9.3
2017-03-25T09:45:59.076Z,9.3
2017-03-25T09:47:01.014Z,9.6
2017-03-25T09:48:03.280Z,9.3
2017-03-25T09:49:05.641Z,9.3
2017-03-25T09:50:07.585Z,9.6
2017-03-25T09:51:09.908Z,9.5
2017-03-25T09:52:11.879Z,9.5
2017-03-25T09:53:13.748Z,9.3
2017-03-25T09:54:15.971Z,9.5
2017-03-25T09:55:17.830Z,9.3
2017-03-25T09:56:19.707Z,9.3
2017-03-25T09:57:21.903Z,9.3
2017-03-25T09:58:24.115Z,9.6
2017-03-25T09:59:26.325Z,9.5
2017-03-25T10:00:28.193Z,9.5
2017-03-25T10:01:30.052Z,9.5
2017-03-25T10:02:32.255Z,9.7
2017-03-25T10:03:35.479Z,9.9
2017-03-25T10:04:37.675Z,9.8
2017-03-25T10:05:39.530Z,9.5
2017-03-25T10:06:41.384Z,10.3
2017-03-25T10:07:43.604Z,10.5
2017-03-25T10:08:45.815Z,10.7
2017-03-25T10:09:47.773Z,10.5
2017-03-25T10:10:49.824Z,10.5
2017-03-25T10:11:52.553Z,10.5
2017-03-25T10:12:55.281Z,10.7
2017-03-25T10:13:57.551Z,10.8
2017-03-25T10:14:59.486Z,10.8
2017-03-25T10:16:01.478Z,10.7
2017-03-25T10:17:03.490Z,10.7
2017-03-25T10:18:05.392Z,11.1
2017-03-25T10:19:07.654Z,11.2
2017-03-25T10:20:09.519Z,11.4
2017-03-25T10:21:11.422Z,11.4
2017-03-25T10:22:13.282Z,10.9
2017-03-25T10:23:15.505Z,10.8
2017-03-25T10:24:17.387Z,11.1
2017-03-25T10:25:19.253Z,10.9
2017-03-25T10:26:21.168Z,10.6
2017-03-25T10:27:23.374Z,11.1
2017-03-25T10:28:25.576Z,10.6
2017-03-25T10:29:27.447Z,10.4
2017-03-25T10:30:29.322Z,10.5
2017-03-25T10:31:31.183Z,10.8
2017-03-25T10:32:33.032Z,11.1
2017-03-25T10:33:34.905Z,11.3
2017-03-25T10:34:36.935Z,11.5
2017-03-25T10:35:38.974Z,11.4
2017-03-25T10:36:40.842Z,11.7
2017-03-25T10:37:42.716Z,12
2017-03-25T10:38:44.583Z,12.2
2017-03-25T10:39:46.451Z,12.1
2017-03-25T10:40:48.648Z,12.1
2017-03-25T10:41:50.838Z,11.9
2017-03-25T10:42:52.724Z,12.5
2017-03-25T10:43:54.595Z,12.8
2017-03-25T10:44:56.458Z,12.7
2017-03-25T10:45:58.322Z,12.6
2017-03-25T10:47:00.529Z,12.8
2017-03-25T10:48:02.389Z,12.6
2017-03-25T10:49:04.261Z,12.5
2017-03-25T10:50:06.188Z,12.5
2017-03-25T10:51:08.140Z,12.5
2017-03-25T10:52:10.095Z,13.1
2017-03-25T10:53:11.970Z,12.1
2017-03-25T10:54:14.171Z,12.3
2017-03-25T10:55:16.052Z,12.7
2017-03-25T10:56:17.912Z,12.8
2017-03-25T10:57:19.780Z,12.3
2017-03-25T10:58:21.652Z,13.1
2017-03-25T10:59:23.539Z,13.3
2017-03-25T11:00:25.416Z,13
2017-03-25T11:01:27.295Z,12.5
2017-03-25T11:02:29.161Z,12.9
2017-03-25T11:03:31.497Z,12.9
2017-03-25T11:04:34.516Z,12.7
2017-03-25T11:05:36.397Z,12.7
2017-03-25T11:06:38.433Z,12.9
2017-03-25T11:07:40.306Z,13.5
2017-03-25T11:08:42.191Z,13.2
2017-03-25T11:09:44.050Z,13.5
2017-03-25T11:10:45.913Z,12.8
2017-03-25T11:11:47.837Z,13
2017-03-25T11:12:50.241Z,13.5
2017-03-25T11:13:52.279Z,13.7
2017-03-25T11:14:54.192Z,13.6
2017-03-25T11:15:56.065Z,13.4
2017-03-25T11:16:57.934Z,13.4
2017-03-25T11:18:00.482Z,12.9
2017-03-25T11:19:02.700Z,12.6
2017-03-25T11:20:04.568Z,12.1
2017-03-25T11:21:06.777Z,12.7
2017-03-25T11:22:08.653Z,12.5
2017-03-25T11:23:10.517Z,13.1
2017-03-25T11:24:12.392Z,13
2017-03-25T11:25:14.271Z,13.4
2017-03-25T11:26:16.492Z,13.2
2017-03-25T11:27:18.351Z,12.4
2017-03-25T11:28:20.572Z,12.6
2017-03-25T11:29:22.437Z,12.4
2017-03-25T11:30:24.414Z,12.3
2017-03-25T11:31:26.271Z,12.7
2017-03-25T11:32:28.147Z,13.2
2017-03-25T11:33:30.026Z,12.8
2017-03-25T11:34:31.900Z,13.3
2017-03-25T11:35:33.776Z,13.2
2017-03-25T11:36:35.990Z,12.8
2017-03-25T11:37:38.215Z,12.8
2017-03-25T11:38:40.106Z,12.9
2017-03-25T11:39:41.981Z,12.9
2017-03-25T11:40:43.838Z,12.8
2017-03-25T11:41:45.861Z,13
2017-03-25T11:42:48.227Z,13.2
2017-03-25T11:43:50.152Z,13.5
2017-03-25T11:44:52.366Z,13.1
2017-03-25T11:45:54.326Z,13.1
2017-03-25T11:46:56.365Z,13
2017-03-25T11:47:58.433Z,13.2
2017-03-25T11:49:00.452Z,13.4
2017-03-25T11:50:02.832Z,13.6
2017-03-25T11:51:04.770Z,13.9
2017-03-25T11:52:06.681Z,14.3
2017-03-25T11:53:09.237Z,14.1
2017-03-25T11:54:11.116Z,13.8
2017-03-25T11:55:13.349Z,13.7
2017-03-25T11:56:15.236Z,13.1
2017-03-25T11:57:17.102Z,13.5
2017-03-25T11:58:18.970Z,14.6
2017-03-25T11:59:21.205Z,14
2017-03-25T12:00:23.076Z,13.3
2017-03-25T12:01:24.936Z,13
2017-03-25T12:02:26.796Z,12.9
2017-03-25T12:03:28.667Z,12.9
2017-03-25T12:04:30.547Z,13
2017-03-25T12:05:32.469Z,12.7
2017-03-25T12:06:34.353Z,12.1
2017-03-25T12:07:36.574Z,12
2017-03-25T12:08:38.443Z,12.3
2017-03-25T12:09:40.318Z,11.6
2017-03-25T12:10:42.915Z,12.2
2017-03-25T12:11:44.788Z,12.6
2017-03-25T12:12:46.679Z,12.4
2017-03-25T12:13:48.570Z,12.3
2017-03-25T12:14:50.449Z,12.3
2017-03-25T12:15:52.314Z,12.9
2017-03-25T12:16:54.348Z,12.9
2017-03-25T12:17:56.244Z,13.2
2017-03-25T12:18:58.163Z,13.1
2017-03-25T12:20:00.372Z,12.8
2017-03-25T12:21:02.234Z,13.3
2017-03-25T12:22:04.104Z,13.3
2017-03-25T12:23:06.650Z,13.3
2017-03-25T12:24:08.581Z,13.7
2017-03-25T12:25:10.453Z,13.5
2017-03-25T12:26:12.321Z,14.3
2017-03-25T12:27:14.184Z,14.2
2017-03-25T12:28:16.054Z,14
2017-03-25T12:29:17.922Z,13.9
2017-03-25T12:30:19.793Z,14.3
2017-03-25T12:31:21.659Z,14.3
2017-03-25T12:32:24.040Z,14.2
2017-03-25T12:33:26.085Z,14.3
2017-03-25T12:34:28.110Z,14.2
2017-03-25T12:35:30.053Z,14.3
2017-03-25T12:36:31.969Z,14.2
2017-03-25T12:37:34.190Z,14.6
2017-03-25T12:38:36.073Z,14.4
2017-03-25T12:39:37.954Z,14.4
2017-03-25T12:40:39.824Z,14.4
2017-03-25T12:41:41.700Z,13.8
2017-03-25T12:42:43.575Z,13.1
2017-03-25T12:43:46.133Z,13.5
2017-03-25T12:44:48.003Z,13.9
2017-03-25T12:45:49.873Z,13.5
2017-03-25T12:46:52.118Z,13.4
2017-03-25T12:47:54.357Z,13.9
2017-03-25T12:48:56.216Z,13.7
2017-03-25T12:49:58.206Z,14.1
2017-03-25T12:51:00.312Z,13.3
2017-03-25T12:52:02.636Z,13.6
2017-03-25T12:53:04.874Z,13.6
2017-03-25T12:54:06.802Z,13.7
2017-03-25T12:55:08.666Z,13.4
2017-03-25T12:56:10.530Z,13.4
2017-03-25T12:57:12.402Z,13.5
2017-03-25T12:58:14.622Z,13.2
2017-03-25T12:59:16.856Z,13
2017-03-25T13:00:18.731Z,13.4
2017-03-25T13:01:20.593Z,13.5
2017-03-25T13:02:22.464Z,13.3
2017-03-25T13:03:24.339Z,13.5
2017-03-25T13:04:26.384Z,14.2
2017-03-25T13:05:28.438Z,14
2017-03-25T13:06:30.302Z,13.8
2017-03-25T13:07:32.179Z,13.5
2017-03-25T13:08:34.744Z,14.1
2017-03-25T13:09:36.620Z,13.6
2017-03-25T13:10:38.487Z,13.6
2017-03-25T13:11:40.701Z,13.1
2017-03-25T13:12:42.914Z,13.4
2017-03-25T13:13:45.118Z,13.6
2017-03-25T13:14:46.987Z,13.9
2017-03-25T13:15:48.855Z,13.4
2017-03-25T13:16:50.718Z,13.8
2017-03-25T13:17:52.929Z,13.2
2017-03-25T13:18:54.808Z,13.6
2017-03-25T13:19:56.672Z,13.7
2017-03-25T13:20:58.537Z,13.7
2017-03-25T13:22:00.394Z,14
2017-03-25T13:23:02.617Z,14.1
2017-03-25T13:24:04.836Z,14.5
2017-03-25T13:25:07.058Z,14.5
2017-03-25T13:26:08.930Z,14.1
2017-03-25T13:27:10.794Z,14.1
2017-03-25T13:28:12.677Z,14.2
2017-03-25T13:29:14.553Z,14.2
2017-03-25T13:30:16.421Z,14
2017-03-25T13:31:18.639Z,13.7
2017-03-25T13:32:20.549Z,14.1
2017-03-25T13:33:22.762Z,14.3
2017-03-25T13:34:24.965Z,13.6
2017-03-25T13:35:26.822Z,14.1
2017-03-25T13:36:28.690Z,14.4
2017-03-25T13:37:30.560Z,15
2017-03-25T13:38:32.443Z,14.3
2017-03-25T13:39:34.994Z,14.1
2017-03-25T13:40:36.859Z,14.2
2017-03-25T13:41:38.732Z,14.5
2017-03-25T13:42:40.603Z,14.9
2017-03-25T13:43:42.494Z,14.5
2017-03-25T13:44:44.381Z,14.4
2017-03-25T13:45:46.250Z,14.1
2017-03-25T13:46:48.494Z,14.4
2017-03-25T13:47:50.708Z,13.9
2017-03-25T13:48:52.575Z,13.9
2017-03-25T13:49:54.784Z,13.7
2017-03-25T13:50:56.654Z,14
2017-03-25T13:51:58.535Z,14.4
2017-03-25T13:53:00.405Z,13.9
2017-03-25T13:54:02.287Z,14.4
2017-03-25T13:55:04.159Z,13.9
2017-03-25T13:56:06.375Z,14.2
2017-03-25T13:57:08.240Z,14.5
2017-03-25T13:58:10.157Z,13.6
2017-03-25T13:59:12.035Z,14.1
2017-03-25T14:00:13.933Z,14.1
2017-03-25T14:01:15.857Z,14
2017-03-25T14:02:18.090Z,13.7
2017-03-25T14:03:19.971Z,13.7
2017-03-25T14:04:21.841Z,13.7
2017-03-25T14:05:23.721Z,13.3
2017-03-25T14:06:26.145Z,13.7
2017-03-25T14:07:28.893Z,13.4
2017-03-25T14:08:31.721Z,13.4
2017-03-25T14:09:34.701Z,13.6
2017-03-25T14:10:37.527Z,13.7
2017-03-25T14:11:40.239Z,14.4
2017-03-25T14:12:42.955Z,14.4
2017-03-25T14:13:45.638Z,14.4